createdAt,value
2023-01-13T00:01:44.479Z,9.30
2023-01-13T00:04:13.920Z,9.60
2023-01-13T00:06:43.418Z,11.60
2023-01-13T00:09:12.435Z,9.10
2023-01-13T00:11:41.444Z,10.60
2023-01-13T00:14:10.762Z,9.40
2023-01-13T00:16:39.867Z,8.60
2023-01-13T00:19:09.170Z,9.10
2023-01-13T00:21:38.377Z,7.30
2023-01-13T00:24:07.655Z,7.60
2023-01-13T00:26:36.703Z,6.60
2023-01-13T00:29:05.892Z,8.80
2023-01-13T00:31:35.139Z,6.00
2023-01-13T00:34:04.994Z,7.70
2023-01-13T00:36:33.893Z,7.10
2023-01-13T00:39:04.202Z,6.90
2023-01-13T00:41:53.350Z,7.10
2023-01-13T00:44:21.711Z,6.20
2023-01-13T00:46:51.074Z,11.20
2023-01-13T00:49:20.928Z,9.60
2023-01-13T00:51:50.376Z,10.80
2023-01-13T00:54:19.132Z,7.90
2023-01-13T00:56:47.992Z,8.20
2023-01-13T00:59:16.418Z,7.00
2023-01-13T04:01:54.693Z,6.20
2023-01-13T04:04:38.606Z,6.50
2023-01-13T04:09:57.007Z,6.00
2023-01-13T04:12:49.013Z,6.00
2023-01-13T04:15:24.985Z,6.40
2023-01-13T04:17:54.892Z,7.00
2023-01-13T04:20:23.848Z,6.10
2023-01-13T04:22:55.584Z,6.60
2023-01-13T04:25:24.676Z,6.00
2023-01-13T04:27:53.616Z,6.40
2023-01-13T04:30:22.606Z,5.70
2023-01-13T04:32:51.653Z,7.00
2023-01-13T04:35:21.073Z,6.10
2023-01-13T04:37:53.371Z,5.70
2023-01-13T04:40:22.579Z,5.30
2023-01-13T04:42:51.238Z,5.20
2023-01-13T04:45:19.857Z,7.30
2023-01-13T04:47:49.372Z,6.10
2023-01-13T04:50:23.252Z,5.40
2023-01-13T04:52:54.089Z,5.30
2023-01-13T04:55:25.237Z,4.60
2023-01-13T04:57:54.112Z,5.20
2023-01-13T05:00:23.581Z,4.60
2023-01-13T05:02:53.132Z,5.30
2023-01-13T05:05:22.014Z,5.10
2023-01-13T05:07:50.329Z,5.40
2023-01-13T05:10:19.185Z,5.50
2023-01-13T05:13:07.095Z,7.90
2023-01-13T05:15:53.962Z,5.70
2023-01-13T05:18:22.773Z,4.60
2023-01-13T05:20:51.643Z,7.00
2023-01-13T05:23:53.720Z,7.60
2023-01-13T05:26:24.100Z,6.40
2023-01-13T05:28:52.208Z,6.70
2023-01-13T05:31:20.603Z,6.50
2023-01-13T05:33:49.608Z,5.70
2023-01-13T05:36:18.813Z,5.20
2023-01-13T05:38:47.735Z,5.20
2023-01-13T05:41:36.301Z,5.70
2023-01-13T05:44:05.433Z,6.40
2023-01-13T05:46:34.005Z,9.70
2023-01-13T05:49:02.366Z,7.50
2023-01-13T05:51:30.651Z,6.30
2023-01-13T05:53:59.613Z,7.70
2023-01-13T05:56:27.780Z,9.10
2023-01-13T05:58:56.207Z,5.60
2023-01-13T06:01:24.846Z,5.30
2023-01-13T06:03:53.107Z,5.50
2023-01-13T06:06:21.987Z,8.90
2023-01-13T06:08:50.174Z,10.40
2023-01-13T06:11:18.834Z,12.20
2023-01-13T06:13:47.618Z,19.50
2023-01-13T06:16:16.296Z,20.30
2023-01-13T06:18:45.337Z,8.00
2023-01-13T06:21:14.414Z,8.00
2023-01-13T06:23:42.536Z,16.20
2023-01-13T06:26:14.032Z,13.20
2023-01-13T06:28:43.678Z,7.10
2023-01-13T06:31:12.519Z,6.60
2023-01-13T06:33:51.297Z,8.30
2023-01-13T06:36:30.328Z,11.70
2023-01-13T06:39:01.678Z,16.70
2023-01-13T06:41:52.612Z,6.90
2023-01-13T06:44:21.900Z,6.40
2023-01-13T06:46:54.827Z,6.50
2023-01-13T06:49:23.905Z,12.90
2023-01-13T06:51:52.934Z,18.30
2023-01-13T06:54:21.158Z,26.00
2023-01-13T06:56:49.364Z,43.20
2023-01-13T06:59:17.879Z,31.90
2023-01-13T07:01:46.610Z,24.50
2023-01-13T07:04:16.073Z,17.90
2023-01-13T07:06:48.078Z,14.80
2023-01-13T07:09:18.677Z,17.90
2023-01-13T07:11:47.476Z,18.80
2023-01-13T07:14:34.823Z,18.90
2023-01-13T07:17:04.317Z,13.80
2023-01-13T07:19:32.809Z,17.60
2023-01-13T07:22:02.653Z,16.30
2023-01-13T07:24:31.353Z,15.80
2023-01-13T07:26:59.714Z,18.60
2023-01-13T07:29:28.558Z,16.70
2023-01-13T07:31:58.097Z,14.70
2023-01-13T07:34:27.084Z,11.50
2023-01-13T07:36:55.404Z,13.30
2023-01-13T07:39:23.992Z,14.10
2023-01-13T07:42:11.157Z,12.80
2023-01-13T07:44:40.776Z,19.20
2023-01-13T07:47:11.906Z,19.70
2023-01-13T07:49:40.799Z,18.70
2023-01-13T07:52:09.710Z,14.90
2023-01-13T07:54:40.960Z,12.80
2023-01-13T07:57:10.972Z,14.20
2023-01-13T07:59:40.052Z,13.20
2023-01-13T08:02:13.262Z,13.80
2023-01-13T08:07:10.954Z,12.50
2023-01-13T08:09:39.973Z,22.70
2023-01-13T08:12:26.848Z,12.00
2023-01-13T08:14:55.332Z,10.70
2023-01-13T08:17:25.975Z,9.60
2023-01-13T08:19:55.313Z,8.80
2023-01-13T08:22:24.678Z,10.30
2023-01-13T08:24:53.231Z,12.00
2023-01-13T08:27:22.082Z,9.30
2023-01-13T08:29:50.304Z,13.60
2023-01-13T08:32:22.689Z,12.70
2023-01-13T08:34:54.031Z,10.10
2023-01-13T08:37:23.268Z,11.40
2023-01-13T08:39:51.678Z,18.00
2023-01-13T08:42:20.135Z,20.20
2023-01-13T08:44:48.869Z,16.40
2023-01-13T08:47:17.184Z,19.30
2023-01-13T08:49:46.382Z,15.90
2023-01-13T08:52:15.734Z,12.00
2023-01-13T08:54:44.203Z,8.90
2023-01-13T08:57:13.673Z,7.80
2023-01-13T08:59:46.826Z,10.30
2023-01-13T09:02:19.813Z,9.70
2023-01-13T09:04:49.980Z,10.70
2023-01-13T09:07:18.648Z,10.30
2023-01-13T09:09:46.931Z,9.80
2023-01-13T09:12:36.345Z,10.10
2023-01-13T09:15:06.935Z,8.70
2023-01-13T09:17:36.405Z,9.70
2023-01-13T09:20:06.534Z,12.80
2023-01-13T09:22:38.233Z,13.20
2023-01-13T09:25:07.832Z,11.10
2023-01-13T09:27:36.922Z,10.80
2023-01-13T09:30:06.634Z,9.50
2023-01-13T09:32:36.068Z,9.60
2023-01-13T09:35:07.605Z,8.90
2023-01-13T09:37:39.333Z,10.10
2023-01-13T09:40:23.277Z,13.50
2023-01-13T09:43:33.179Z,9.70
2023-01-13T09:46:33.700Z,13.50
2023-01-13T09:49:04.053Z,12.20
2023-01-13T09:51:46.648Z,11.90
2023-01-13T09:54:34.077Z,13.40
2023-01-13T09:57:03.072Z,10.60
2023-01-13T09:59:37.217Z,10.60
2023-01-13T10:02:40.986Z,11.20
2023-01-13T10:05:19.860Z,16.10
2023-01-13T10:07:57.927Z,11.10
2023-01-13T10:10:43.340Z,11.90
2023-01-13T10:13:26.127Z,15.80
2023-01-13T10:16:13.355Z,14.00
2023-01-13T10:18:58.665Z,14.40
2023-01-13T10:21:33.437Z,12.50
2023-01-13T10:24:17.244Z,10.60
2023-01-13T10:29:28.528Z,14.80
2023-01-13T10:32:01.463Z,14.60
2023-01-13T10:34:30.800Z,14.80
2023-01-13T10:37:07.187Z,16.20
2023-01-13T10:39:43.637Z,17.00
2023-01-13T10:42:16.028Z,17.40
2023-01-13T10:44:56.708Z,18.80
2023-01-13T10:47:37.002Z,20.10
2023-01-13T10:50:11.980Z,13.30
2023-01-13T10:53:03.376Z,12.40
2023-01-13T10:55:37.309Z,10.40
2023-01-13T10:58:20.229Z,9.90
2023-01-13T11:01:15.024Z,8.70
2023-01-13T11:03:47.278Z,11.40
2023-01-13T11:06:28.006Z,11.20
2023-01-13T11:09:03.326Z,9.20
2023-01-13T11:11:40.797Z,11.60
2023-01-13T11:14:34.047Z,12.20
2023-01-13T11:17:32.237Z,11.70
2023-01-13T11:20:12.153Z,9.80
2023-01-13T11:22:46.680Z,9.50
2023-01-13T11:25:23.752Z,12.00
2023-01-13T11:28:05.336Z,17.70
2023-01-13T11:31:04.250Z,23.00
2023-01-13T11:33:45.640Z,17.60
2023-01-13T11:36:20.362Z,15.60
2023-01-13T11:38:56.466Z,15.70
2023-01-13T11:41:36.134Z,14.00
2023-01-13T11:44:10.271Z,15.30
2023-01-13T11:46:40.887Z,17.40
2023-01-13T11:49:26.924Z,15.00
2023-01-13T11:52:26.119Z,13.20
2023-01-13T11:55:20.163Z,14.90
2023-01-13T11:58:06.883Z,14.90
2023-01-13T12:00:47.295Z,16.30
2023-01-13T12:03:26.140Z,13.70
2023-01-13T12:06:10.630Z,13.50
2023-01-13T12:09:16.209Z,12.90
2023-01-13T12:12:20.148Z,14.20
2023-01-13T12:15:19.126Z,14.20
2023-01-13T12:18:00.489Z,15.10
2023-01-13T12:21:10.985Z,14.10
2023-01-13T12:24:15.574Z,13.30
2023-01-13T12:26:58.965Z,14.90
2023-01-13T12:29:35.575Z,14.60
2023-01-13T12:32:08.917Z,16.70
2023-01-13T12:34:59.686Z,12.20
2023-01-13T12:37:39.322Z,17.40
2023-01-13T12:40:41.160Z,22.50
2023-01-13T12:43:36.156Z,13.80
2023-01-13T12:46:23.303Z,15.70
2023-01-13T12:48:57.197Z,18.10
2023-01-13T12:51:38.586Z,15.10
2023-01-13T12:54:40.255Z,12.10
2023-01-13T12:57:36.716Z,20.50
2023-01-13T13:00:05.540Z,16.70
2023-01-13T13:02:34.604Z,13.50
2023-01-13T13:05:15.971Z,12.70
2023-01-13T13:08:13.187Z,18.00
2023-01-13T13:10:57.061Z,13.20
2023-01-13T13:16:27.284Z,21.20
2023-01-13T13:19:21.335Z,14.90
2023-01-13T13:22:19.590Z,17.00
2023-01-13T13:25:00.349Z,11.10
2023-01-13T13:27:45.545Z,13.70
2023-01-13T13:30:17.788Z,11.00
2023-01-13T13:33:09.099Z,13.20
2023-01-13T13:35:52.582Z,12.10
2023-01-13T13:39:04.644Z,14.80
2023-01-13T13:41:54.918Z,11.90
2023-01-13T13:45:02.061Z,15.70
2023-01-13T13:47:38.755Z,13.50
2023-01-13T13:50:21.391Z,12.30
2023-01-13T13:53:05.736Z,15.90
2023-01-13T13:58:04.776Z,12.10
2023-01-13T14:00:38.512Z,14.60
2023-01-13T14:03:22.061Z,16.70
2023-01-13T14:05:58.087Z,13.10
2023-01-13T14:08:28.979Z,10.00
2023-01-13T14:10:58.224Z,9.90
2023-01-13T14:13:30.593Z,11.60
2023-01-13T14:16:08.015Z,13.70
2023-01-13T14:18:48.127Z,15.10
2023-01-13T14:21:26.463Z,14.00
2023-01-13T14:23:59.593Z,14.60
2023-01-13T14:26:31.102Z,13.60
2023-01-13T14:29:03.523Z,14.20
2023-01-13T14:31:32.982Z,13.10
2023-01-13T14:34:31.942Z,13.50
2023-01-13T14:36:54.391Z,26.50
2023-01-13T14:39:34.992Z,18.40
2023-01-13T14:42:03.768Z,22.50
2023-01-13T14:44:36.848Z,24.30
2023-01-13T14:47:28.364Z,17.10
2023-01-13T14:50:02.778Z,25.70
2023-01-13T14:52:52.867Z,32.10
2023-01-13T14:55:24.224Z,24.10
2023-01-13T14:57:53.404Z,30.70
2023-01-13T15:00:26.187Z,29.00
2023-01-13T15:02:58.700Z,27.10
2023-01-13T15:05:27.273Z,20.20
2023-01-13T15:08:05.342Z,13.70
2023-01-13T15:11:03.740Z,20.90
2023-01-13T15:14:09.452Z,13.90
2023-01-13T15:16:39.138Z,15.30
2023-01-13T15:19:10.471Z,14.40
2023-01-13T15:21:39.838Z,14.90
2023-01-13T15:24:08.351Z,16.60
2023-01-13T15:26:37.795Z,15.10
2023-01-13T15:29:13.685Z,17.20
2023-01-13T15:31:43.462Z,16.70
2023-01-13T15:34:12.461Z,14.70
2023-01-13T15:36:40.951Z,23.20
2023-01-13T15:39:13.449Z,21.20
2023-01-13T15:42:01.894Z,19.80
2023-01-13T15:44:50.399Z,24.70
2023-01-13T15:47:20.438Z,25.60
2023-01-13T15:49:49.440Z,21.30
2023-01-13T15:52:26.364Z,18.80
2023-01-13T15:54:55.373Z,24.00
2023-01-13T15:57:33.780Z,23.80
2023-01-13T16:00:13.466Z,8.90
2023-01-13T16:02:44.797Z,10.40
2023-01-13T16:05:14.130Z,19.60
2023-01-13T16:07:43.393Z,21.30
2023-01-13T16:10:22.077Z,26.00
2023-01-13T16:12:51.347Z,23.20
2023-01-13T16:15:23.530Z,31.00
2023-01-13T16:17:58.248Z,29.90
2023-01-13T16:20:27.955Z,27.00
2023-01-13T16:22:56.409Z,39.10
2023-01-13T16:25:27.533Z,34.90
2023-01-13T16:27:56.231Z,34.00
2023-01-13T16:30:33.980Z,31.20
2023-01-13T16:33:04.063Z,24.00
2023-01-13T16:35:32.704Z,22.00
2023-01-13T16:38:01.662Z,26.50
2023-01-13T16:40:33.797Z,22.10
2023-01-13T16:43:04.000Z,23.80
2023-01-13T16:45:33.780Z,27.90
2023-01-13T16:48:02.782Z,25.40
2023-01-13T16:50:36.410Z,21.60
2023-01-13T16:55:33.031Z,33.70
2023-01-13T16:58:02.045Z,25.50
2023-01-13T17:00:30.938Z,34.00
2023-01-13T17:03:01.640Z,34.20
2023-01-13T17:05:30.019Z,37.30
2023-01-13T17:07:59.189Z,40.30
2023-01-13T17:10:31.279Z,27.80
2023-01-13T17:13:07.305Z,26.60
2023-01-13T17:15:43.905Z,17.40
2023-01-13T17:18:14.187Z,23.20
2023-01-13T17:20:46.631Z,19.20
2023-01-13T17:23:15.819Z,19.70
2023-01-13T17:25:45.089Z,23.70
2023-01-13T17:28:14.598Z,22.30
2023-01-13T17:30:45.316Z,24.40
2023-01-13T17:33:20.474Z,23.10
2023-01-13T17:35:50.563Z,22.20
2023-01-13T17:38:20.935Z,24.00
2023-01-13T17:40:53.263Z,23.50
2023-01-13T17:43:26.944Z,22.20
2023-01-13T17:45:57.997Z,23.10
2023-01-13T17:48:31.857Z,23.10
2023-01-13T17:51:02.029Z,19.30
2023-01-13T17:53:31.192Z,16.00
2023-01-13T17:56:01.108Z,13.90
2023-01-13T17:58:31.435Z,17.30
2023-01-13T18:01:00.275Z,18.50
2023-01-13T18:03:29.968Z,17.10
2023-01-13T18:06:09.461Z,17.70
2023-01-13T18:08:39.749Z,19.80
2023-01-13T18:11:09.699Z,17.60
2023-01-13T18:13:40.133Z,17.60
2023-01-13T18:16:14.461Z,17.50
2023-01-13T18:18:44.622Z,22.70
2023-01-13T18:21:41.174Z,22.50
2023-01-13T18:24:33.948Z,22.70
2023-01-13T18:27:22.710Z,22.90
2023-01-13T18:29:57.203Z,26.10
2023-01-13T18:32:32.529Z,27.50
2023-01-13T18:35:06.830Z,22.50
2023-01-13T18:37:38.960Z,26.20
2023-01-13T18:40:10.918Z,30.10
2023-01-13T18:42:51.780Z,25.80
2023-01-13T18:45:28.612Z,30.00
2023-01-13T18:47:59.559Z,24.80
2023-01-13T18:50:28.839Z,25.00
2023-01-13T18:52:57.643Z,19.80
2023-01-13T18:55:27.376Z,19.20
2023-01-13T18:57:57.196Z,23.90
2023-01-13T19:00:27.678Z,18.20
2023-01-13T19:05:42.096Z,21.80
2023-01-13T19:08:10.834Z,19.60
2023-01-13T19:10:44.785Z,21.60
2023-01-13T19:13:16.417Z,20.80
2023-01-13T19:15:45.040Z,17.70
2023-01-13T19:18:15.111Z,18.00
2023-01-13T19:20:44.280Z,24.60
2023-01-13T19:23:13.319Z,21.10
2023-01-13T19:25:42.415Z,26.20
2023-01-13T19:28:11.113Z,33.10
2023-01-13T19:30:39.309Z,39.70
2023-01-13T19:33:07.940Z,29.40
2023-01-13T19:35:37.951Z,26.60
2023-01-13T19:38:06.672Z,22.70
2023-01-13T19:40:36.328Z,23.80
2023-01-13T19:43:24.255Z,27.60
2023-01-13T19:45:53.078Z,23.90
2023-01-13T19:48:21.548Z,36.40
2023-01-13T19:50:50.573Z,39.10
2023-01-13T19:53:21.236Z,38.10
2023-01-13T19:55:51.234Z,22.50
2023-01-13T19:58:20.948Z,19.10
2023-01-13T20:00:50.560Z,20.10
2023-01-13T20:03:26.077Z,21.70
2023-01-13T20:05:55.736Z,20.60
2023-01-13T20:08:24.431Z,34.50
2023-01-13T20:11:12.753Z,48.60
2023-01-13T20:13:41.246Z,75.50
2023-01-13T20:16:10.329Z,43.40
2023-01-13T20:18:39.423Z,35.80
2023-01-13T20:21:09.283Z,29.00
2023-01-13T20:23:39.137Z,25.40
2023-01-13T20:26:09.126Z,16.90
2023-01-13T20:28:39.746Z,19.60
2023-01-13T20:31:13.003Z,19.30
2023-01-13T20:33:42.200Z,18.30
2023-01-13T20:36:26.725Z,16.80
2023-01-13T20:39:00.328Z,16.00
2023-01-13T20:41:47.631Z,20.50
2023-01-13T20:44:16.336Z,21.60
2023-01-13T20:46:45.050Z,20.10
2023-01-13T20:49:15.346Z,19.70
2023-01-13T20:51:43.633Z,17.90
2023-01-13T20:54:12.013Z,14.90
2023-01-13T20:56:43.178Z,15.20
2023-01-13T20:59:12.348Z,16.50
2023-01-13T21:01:40.874Z,15.30
2023-01-13T21:04:09.449Z,14.60
2023-01-13T21:06:37.594Z,12.00
2023-01-13T21:09:05.904Z,14.30
2023-01-13T21:11:53.298Z,17.10
2023-01-13T21:14:43.408Z,46.10
2023-01-13T21:17:33.098Z,53.50
2023-01-13T21:20:04.193Z,49.50
2023-01-13T21:22:33.261Z,49.70
2023-01-13T21:25:03.518Z,34.80
2023-01-13T21:27:32.880Z,40.60
2023-01-13T21:30:01.200Z,24.30
2023-01-13T21:32:29.620Z,19.40
2023-01-13T21:35:02.528Z,31.50
2023-01-13T21:37:31.131Z,24.90
2023-01-13T21:39:59.383Z,34.70
2023-01-13T21:42:46.334Z,30.50
2023-01-13T21:45:33.305Z,19.30
2023-01-13T21:48:01.663Z,17.00
2023-01-13T21:50:30.525Z,14.20
2023-01-13T21:52:59.865Z,27.40
2023-01-13T21:55:28.939Z,24.70
2023-01-13T21:58:09.960Z,24.80
2023-01-13T22:00:39.728Z,15.00
2023-01-13T22:03:09.357Z,13.00
2023-01-13T22:05:39.223Z,16.20
2023-01-13T22:08:08.395Z,15.20
2023-01-13T22:10:36.707Z,15.30
2023-01-13T22:13:24.012Z,28.30
2023-01-13T22:15:52.696Z,18.20
2023-01-13T22:18:21.077Z,16.00
2023-01-13T22:20:49.603Z,13.40
2023-01-13T22:23:17.661Z,12.50
2023-01-13T22:25:46.047Z,20.40
2023-01-13T22:28:24.113Z,26.80
2023-01-13T22:30:53.886Z,41.70
2023-01-13T22:33:22.847Z,25.20
2023-01-13T22:35:56.353Z,15.30
2023-01-13T22:38:25.486Z,16.50
2023-01-13T22:41:05.204Z,12.70
2023-01-13T22:43:35.888Z,16.80
2023-01-13T22:46:13.507Z,10.10
2023-01-13T22:48:42.779Z,9.80
2023-01-13T22:51:14.588Z,9.70
2023-01-13T22:53:44.688Z,8.40
2023-01-13T22:56:23.252Z,7.60
2023-01-13T22:59:00.997Z,8.90
2023-01-13T23:01:33.135Z,8.30
2023-01-13T23:04:03.717Z,9.60
2023-01-13T23:06:34.519Z,8.70
2023-01-13T23:09:03.379Z,9.10
2023-01-13T23:11:32.345Z,7.40
2023-01-13T23:14:04.268Z,7.50
2023-01-13T23:16:36.400Z,11.10
2023-01-13T23:19:07.482Z,10.60
2023-01-13T23:21:38.409Z,10.60
2023-01-13T23:24:08.459Z,7.80
2023-01-13T23:26:38.133Z,7.30
2023-01-13T23:29:09.713Z,9.40
2023-01-13T23:31:39.798Z,7.70
2023-01-13T23:34:08.875Z,7.30
2023-01-13T23:36:42.005Z,7.30
2023-01-13T23:39:11.370Z,7.50
2023-01-13T23:41:40.190Z,7.20
2023-01-13T23:44:10.161Z,5.50
2023-01-13T23:46:39.422Z,7.40
2023-01-13T23:49:08.942Z,6.00
2023-01-13T23:51:38.362Z,7.50
2023-01-13T23:54:07.574Z,7.90
2023-01-13T23:56:39.774Z,9.60
2023-01-13T23:59:09.136Z,9.10
